Lillooet, Canada
Current Conditions -  °F | °C
As of 1:00 PM on Thursday 20 Nov 2014 (Local Time) from CWLY Reporting Station
Scattered Clouds Scattered Clouds  
Wind Chill: 43°   Ceiling: Unl
Heat Index: 43°   Visibility: 9mi
Dew Point: 27°   Wind: 3mph
Humidity: 53%   Direction: NA
Pressure: 29.83"   Gusts: NA
Location:  50.68°N, 121.93°W
Report Text: CWLY 202100Z AUTO VRB03KT 9SM FEW075 SCT090 06/M03 A2983 RMK SLP110
Loading
Personal Weather Stations






























Interactive Weather Map New forecast layout! Learn more

10-Day Weather Forecast

Advertisements
Track Severe Weather on mobile